Raleigh County Memorial Airport
KBKW : now visible

Airfield :











YOU CAN JOIN US ON...

 
LOGIN :

Register | Disclaimer

   EN    FR    IT 

 









Legend :    VFR   Marginal VFR   IFR   Intensive IFR   Very Intensive IFR
Visi :
Ceiling :
>= 8 km
>= 3000ft
5 to 8 km
1000 to 3000 ft
1500m to 5 km
500 to 1000 ft
800 to 1500m
200 to 500 ft
< 800m
< 200 ft
Symbols :   Thunderstorms  Fog  Heavy snow  Heavy precipitations  Wind > 20 kt






- Airport Elevation : 2504 ft
- IATA code : BKW


KBKW - Raleigh County Memorial

CURRENT METAR :
  • 220151Z AUTO 29005KT 10SM FEW007 M02/M03 A3005 RMK AO2 SNE23 SLP204 P0002 T10221028 TSNO

EXPIRED METARs :
  • 220136Z AUTO 28006KT 10SM SCT007 M02/M03 A3005 RMK AO2 SNE23 P0002 T10221028 TSNO
  • 220121Z AUTO 27006G16KT 7SM -SN BKN006 BKN012 BKN038 M02/M03 A3004 RMK AO2 P0002 T10171028 TSNO
  • 220113Z AUTO 28007G18KT 2SM -SN BR SCT005 BKN009 OVC038 M02/M03 A3004 RMK AO2 VIS 1V5 P0002 T10171028 TSNO
  • 220055Z AUTO 32011KT 3/4SM -SN BR FEW005 BKN018 OVC023 M02/M03 A3004 RMK AO2 P0001 T10171028 TSNO
  • 220051Z AUTO 34011KT 1SM -SN BR BKN018 BKN023 OVC038 M02/M03 A3003 RMK AO2 SNB41 CIG 013 RWY19 SLP195 P0000 T10171033 TSNO
  • 220043Z AUTO 34007KT 2 1/2SM -SN BKN022 OVC038 M01/M04 A3003 RMK AO2 VIS 1 RWY19 SNB41 CIG 015 RWY19 P0000 T10111044 TSNO
  • 212351Z AUTO 30013KT 10SM CLR M01/M06 A3002 RMK AO2 SNE12 SLP186 P0000 60001 T10061056 10022 21006 53014 TSNO

TAF KBKW
Valid from the 22 at 02:00 until the 23 at 00:00 UTC


220228Z 2202/2224 28006KT P6SM BKN035
FM220700 28007KT P6SM SCT050
FM221200 28008G15KT P6SM FEW100
FM221500 29013G24KT P6SM SCT045
KZID FIR / North America



MET'MAP, your aeronautical weather chart ! - Copyright ORBIFLY December 2007 - Disclaimer

ORBIFLY MET'MAP TEAM :

Programming & Development : Alexandra Zaïnal
Concept & original design : Baudouin d'Aumeries
Assistance for programming : Marc-Olivier Méhu
Technical & hardware support : Manuel Goepfert

Contact : metmap@orbifly.com




SOURCES & CREDITS :

   NOAA       Earth
Advisory